createdAt,value
2019-02-26T00:00:42.300Z,962.64
2019-02-26T00:01:39.095Z,962.65
2019-02-26T00:02:39.012Z,962.60
2019-02-26T00:03:38.899Z,962.66
2019-02-26T00:04:38.801Z,962.65
2019-02-26T00:05:38.701Z,962.66
2019-02-26T00:06:38.607Z,962.69
2019-02-26T00:07:38.523Z,962.68
2019-02-26T00:08:38.405Z,962.66
2019-02-26T00:09:38.313Z,962.64
2019-02-26T00:10:39.141Z,962.60
2019-02-26T00:11:40.149Z,962.62
2019-02-26T00:12:38.028Z,962.60
2019-02-26T00:13:37.912Z,962.57
2019-02-26T00:14:37.819Z,962.58
2019-02-26T00:15:38.566Z,962.59
2019-02-26T00:16:39.731Z,962.58
2019-02-26T00:17:40.557Z,962.58
2019-02-26T00:18:37.422Z,962.54
2019-02-26T00:19:37.322Z,962.54
2019-02-26T00:20:39.217Z,962.52
2019-02-26T00:21:37.123Z,962.54
2019-02-26T00:22:38.885Z,962.57
2019-02-26T00:23:36.923Z,962.56
2019-02-26T00:24:37.765Z,962.53
2019-02-26T00:25:36.753Z,962.57
2019-02-26T00:26:38.366Z,962.58
2019-02-26T00:27:36.548Z,962.58
2019-02-26T00:28:38.944Z,962.56
2019-02-26T00:29:36.336Z,962.54
2019-02-26T00:30:37.899Z,962.58
2019-02-26T00:31:36.136Z,962.55
2019-02-26T00:32:38.121Z,962.61
2019-02-26T00:33:35.962Z,962.65
2019-02-26T00:34:37.346Z,962.62
2019-02-26T00:35:35.736Z,962.65
2019-02-26T00:36:36.503Z,962.65
2019-02-26T00:37:35.544Z,962.61
2019-02-26T00:38:37.532Z,962.65
2019-02-26T00:39:35.339Z,962.64
2019-02-26T00:40:37.086Z,962.61
2019-02-26T00:41:35.782Z,962.66
2019-02-26T00:42:36.070Z,962.65
2019-02-26T00:43:36.737Z,962.60
2019-02-26T00:44:37.132Z,962.61
2019-02-26T00:45:36.936Z,962.59
2019-02-26T00:46:35.237Z,962.54
2019-02-26T00:47:36.312Z,962.55
2019-02-26T00:48:36.075Z,962.57
2019-02-26T00:49:34.347Z,962.60
2019-02-26T00:50:35.572Z,962.55
2019-02-26T00:51:34.149Z,962.58
2019-02-26T00:52:34.831Z,962.57
2019-02-26T00:53:33.970Z,962.58
2019-02-26T00:54:34.396Z,962.55
2019-02-26T00:55:34.881Z,962.57
2019-02-26T00:56:34.700Z,962.64
2019-02-26T00:57:35.756Z,962.61
2019-02-26T00:58:37.018Z,962.60
2019-02-26T00:59:36.342Z,962.64
2019-02-26T01:00:35.353Z,962.64
2019-02-26T01:01:33.158Z,962.68
2019-02-26T01:02:33.071Z,962.70
2019-02-26T01:03:33.099Z,962.65
2019-02-26T01:04:32.857Z,962.64
2019-02-26T01:05:34.028Z,962.64
2019-02-26T01:06:33.511Z,962.67
2019-02-26T01:07:32.560Z,962.63
2019-02-26T01:08:32.479Z,962.61
2019-02-26T01:09:34.012Z,962.65
2019-02-26T01:10:34.449Z,962.63
2019-02-26T01:11:32.163Z,962.61
2019-02-26T01:12:33.078Z,962.60
2019-02-26T01:13:32.298Z,962.58
2019-02-26T01:14:31.861Z,962.56
2019-02-26T01:15:31.765Z,962.52
2019-02-26T01:16:31.663Z,962.45
2019-02-26T01:17:33.266Z,962.41
2019-02-26T01:18:31.487Z,962.41
2019-02-26T01:19:32.150Z,962.39
2019-02-26T01:20:32.017Z,962.38
2019-02-26T01:21:33.556Z,962.33
2019-02-26T01:22:32.823Z,962.36
2019-02-26T01:23:30.985Z,962.35
2019-02-26T01:24:32.528Z,962.36
2019-02-26T01:25:30.768Z,962.35
2019-02-26T01:26:30.668Z,962.35
2019-02-26T01:27:30.571Z,962.33
2019-02-26T01:28:30.486Z,962.31
2019-02-26T01:29:32.213Z,962.25
2019-02-26T01:30:33.175Z,962.25
2019-02-26T01:31:32.102Z,962.21
2019-02-26T01:32:30.070Z,962.21
2019-02-26T01:33:31.932Z,962.23
2019-02-26T01:34:29.872Z,962.22
2019-02-26T01:35:30.741Z,962.24
2019-02-26T01:36:29.672Z,962.26
2019-02-26T01:37:29.957Z,962.27
2019-02-26T01:38:29.591Z,962.25
2019-02-26T01:39:29.373Z,962.28
2019-02-26T01:40:29.282Z,962.21
2019-02-26T01:41:29.174Z,962.21
2019-02-26T01:42:29.878Z,962.25
2019-02-26T01:43:28.990Z,962.21
2019-02-26T01:44:32.300Z,962.21
2019-02-26T01:45:31.751Z,962.14
2019-02-26T01:46:30.082Z,962.13
2019-02-26T01:47:28.640Z,962.14
2019-02-26T01:48:29.924Z,962.11
2019-02-26T01:49:28.589Z,962.11
2019-02-26T01:50:28.846Z,962.08
2019-02-26T01:51:28.703Z,962.10
2019-02-26T01:52:28.178Z,962.16
2019-02-26T01:53:27.995Z,962.09
2019-02-26T01:54:30.051Z,962.11
2019-02-26T01:55:27.877Z,962.09
2019-02-26T01:56:27.679Z,962.08
2019-02-26T01:57:27.866Z,962.05
2019-02-26T01:58:27.493Z,962.02
2019-02-26T01:59:27.395Z,961.99
2019-02-26T02:00:27.285Z,961.99
2019-02-26T02:01:27.178Z,961.99
2019-02-26T02:02:28.218Z,962.03
2019-02-26T02:03:28.028Z,962.02
2019-02-26T02:04:26.880Z,962.02
2019-02-26T02:05:29.487Z,962.06
2019-02-26T02:06:26.683Z,962.01
2019-02-26T02:07:28.697Z,962.01
2019-02-26T02:08:26.498Z,962.02
2019-02-26T02:09:26.382Z,962.00
2019-02-26T02:10:26.280Z,962.04
2019-02-26T02:11:28.278Z,962.06
2019-02-26T02:12:29.542Z,962.01
2019-02-26T02:13:28.353Z,962.04
2019-02-26T02:14:25.882Z,962.02
2019-02-26T02:15:25.783Z,962.00
2019-02-26T02:16:27.301Z,962.01
2019-02-26T02:17:25.589Z,962.00
2019-02-26T02:18:27.594Z,961.98
2019-02-26T02:19:27.421Z,961.94
2019-02-26T02:20:25.284Z,961.97
2019-02-26T02:21:25.991Z,961.98
2019-02-26T02:22:25.085Z,961.99
2019-02-26T02:23:25.803Z,961.99
2019-02-26T02:24:24.886Z,961.99
2019-02-26T02:25:24.785Z,961.96
2019-02-26T02:26:24.689Z,961.96
2019-02-26T02:27:27.298Z,961.93
2019-02-26T02:28:26.233Z,961.94
2019-02-26T02:29:25.925Z,962.00
2019-02-26T02:30:30.442Z,961.97
2019-02-26T02:31:24.569Z,961.98
2019-02-26T02:32:26.109Z,961.95
2019-02-26T02:33:26.693Z,961.93
2019-02-26T02:34:27.034Z,961.92
2019-02-26T02:35:23.784Z,961.87
2019-02-26T02:36:26.273Z,961.85
2019-02-26T02:37:26.221Z,961.79
2019-02-26T02:38:23.491Z,961.78
2019-02-26T02:39:24.364Z,961.74
2019-02-26T02:40:23.290Z,961.70
2019-02-26T02:41:23.188Z,961.68
2019-02-26T02:42:23.090Z,961.68
2019-02-26T02:43:23.551Z,961.66
2019-02-26T02:44:23.624Z,961.64
2019-02-26T02:45:22.789Z,961.66
2019-02-26T02:46:22.688Z,961.68
2019-02-26T02:47:25.059Z,961.66
2019-02-26T02:48:22.492Z,961.63
2019-02-26T02:49:22.404Z,961.63
2019-02-26T02:50:22.291Z,961.64
2019-02-26T02:51:22.194Z,961.68
2019-02-26T02:52:24.130Z,961.65
2019-02-26T02:53:23.938Z,961.68
2019-02-26T02:54:23.708Z,961.69
2019-02-26T02:55:21.790Z,961.68
2019-02-26T02:56:21.693Z,961.72
2019-02-26T02:57:23.780Z,961.69
2019-02-26T02:58:23.895Z,961.68
2019-02-26T02:59:21.412Z,961.67
2019-02-26T03:00:23.898Z,961.68
2019-02-26T03:01:24.443Z,961.67
2019-02-26T03:02:23.023Z,961.68
2019-02-26T03:03:20.991Z,961.66
2019-02-26T03:04:22.199Z,961.61
2019-02-26T03:05:20.796Z,961.59
2019-02-26T03:06:20.698Z,961.63
2019-02-26T03:07:21.550Z,961.64
2019-02-26T03:08:22.410Z,961.68
2019-02-26T03:09:20.411Z,961.63
2019-02-26T03:10:20.296Z,961.65
2019-02-26T03:11:20.195Z,961.65
2019-02-26T03:12:20.100Z,961.62
2019-02-26T03:13:22.780Z,961.60
2019-02-26T03:14:19.913Z,961.54
2019-02-26T03:15:21.823Z,961.56
2019-02-26T03:16:21.957Z,961.54
2019-02-26T03:17:20.231Z,961.53
2019-02-26T03:18:19.497Z,961.48
2019-02-26T03:19:19.415Z,961.49
2019-02-26T03:20:19.293Z,961.49
2019-02-26T03:21:21.578Z,961.49
2019-02-26T03:22:21.581Z,961.52
2019-02-26T03:23:19.919Z,961.49
2019-02-26T03:24:18.918Z,961.43
2019-02-26T03:25:23.015Z,961.44
2019-02-26T03:26:20.553Z,961.45
2019-02-26T03:27:18.593Z,961.47
2019-02-26T03:28:18.496Z,961.46
2019-02-26T03:29:18.413Z,961.52
2019-02-26T03:30:26.260Z,961.50
2019-02-26T03:31:18.198Z,961.48
2019-02-26T03:32:18.100Z,961.51
2019-02-26T03:33:17.998Z,961.52
2019-02-26T03:34:21.730Z,961.49
2019-02-26T03:35:19.497Z,961.50
2019-02-26T03:36:19.262Z,961.49
2019-02-26T03:37:17.599Z,961.49
2019-02-26T03:38:18.128Z,961.43
2019-02-26T03:39:17.421Z,961.50
2019-02-26T03:40:17.320Z,961.50
2019-02-26T03:41:20.366Z,961.49
2019-02-26T03:42:20.637Z,961.47
2019-02-26T03:43:17.001Z,961.47
2019-02-26T03:44:16.939Z,961.45
2019-02-26T03:45:23.633Z,961.47
2019-02-26T03:46:16.706Z,961.47
2019-02-26T03:47:18.765Z,961.45
2019-02-26T03:48:20.099Z,961.46
2019-02-26T03:49:16.421Z,961.48
2019-02-26T03:50:16.306Z,961.45
2019-02-26T03:51:17.795Z,961.44
2019-02-26T03:52:16.106Z,961.43
2019-02-26T03:53:16.007Z,961.40
2019-02-26T03:54:15.925Z,961.38
2019-02-26T03:55:18.727Z,961.35
2019-02-26T03:56:17.654Z,961.40
2019-02-26T03:57:16.838Z,961.37
2019-02-26T03:58:15.524Z,961.34
2019-02-26T03:59:15.415Z,961.32
2019-02-26T04:00:17.444Z,961.31
2019-02-26T04:01:18.256Z,961.26
2019-02-26T04:02:17.443Z,961.26
2019-02-26T04:03:17.301Z,961.22
2019-02-26T04:04:14.947Z,961.23
2019-02-26T04:05:14.913Z,961.22
2019-02-26T04:06:14.711Z,961.19
2019-02-26T04:07:14.613Z,961.21
2019-02-26T04:08:16.320Z,961.23
2019-02-26T04:09:16.594Z,961.25
2019-02-26T04:10:14.328Z,961.26
2019-02-26T04:11:16.549Z,961.24
2019-02-26T04:12:15.382Z,961.24
2019-02-26T04:13:14.016Z,961.25
2019-02-26T04:14:17.342Z,961.23
2019-02-26T04:15:13.835Z,961.23
2019-02-26T04:16:13.715Z,961.26
2019-02-26T04:17:13.617Z,961.25
2019-02-26T04:18:13.525Z,961.26
2019-02-26T04:19:13.517Z,961.31
2019-02-26T04:20:13.333Z,961.31
2019-02-26T04:21:15.766Z,961.29
2019-02-26T04:22:15.139Z,961.35
2019-02-26T04:23:14.262Z,961.31
2019-02-26T04:24:12.922Z,961.33
2019-02-26T04:25:12.837Z,961.33
2019-02-26T04:26:15.992Z,961.35
2019-02-26T04:27:12.617Z,961.30
2019-02-26T04:28:12.522Z,961.28
2019-02-26T04:29:12.426Z,961.24
2019-02-26T04:30:13.573Z,961.26
2019-02-26T04:31:12.221Z,961.25
2019-02-26T04:32:15.028Z,961.28
2019-02-26T04:33:14.096Z,961.29
2019-02-26T04:34:11.923Z,961.30
2019-02-26T04:35:11.836Z,961.29
2019-02-26T04:36:14.412Z,961.29
2019-02-26T04:37:12.908Z,961.34
2019-02-26T04:38:11.526Z,961.37
2019-02-26T04:39:13.674Z,961.39
2019-02-26T04:40:14.006Z,961.42
2019-02-26T04:41:13.378Z,961.41
2019-02-26T04:42:12.019Z,961.43
2019-02-26T04:43:12.891Z,961.43
2019-02-26T04:44:10.926Z,961.40
2019-02-26T04:45:10.846Z,961.41
2019-02-26T04:46:13.010Z,961.39
2019-02-26T04:47:10.732Z,961.36
2019-02-26T04:48:14.726Z,961.33
2019-02-26T04:49:10.424Z,961.35
2019-02-26T04:50:10.358Z,961.37
2019-02-26T04:51:10.224Z,961.35
2019-02-26T04:52:10.928Z,961.36
2019-02-26T04:53:11.065Z,961.38
2019-02-26T04:54:09.928Z,961.37
2019-02-26T04:55:09.843Z,961.36
2019-02-26T04:56:12.856Z,961.37
2019-02-26T04:57:09.630Z,961.41
2019-02-26T04:58:12.229Z,961.39
2019-02-26T04:59:11.810Z,961.40
2019-02-26T05:00:10.539Z,961.35
2019-02-26T05:01:10.103Z,961.35
2019-02-26T05:02:09.127Z,961.30
2019-02-26T05:03:13.543Z,961.30
2019-02-26T05:04:08.932Z,961.27
2019-02-26T05:05:08.851Z,961.25
2019-02-26T05:06:10.848Z,961.25
2019-02-26T05:07:12.776Z,961.27
2019-02-26T05:08:10.458Z,961.25
2019-02-26T05:09:10.492Z,961.22
2019-02-26T05:10:08.348Z,961.22
2019-02-26T05:11:08.245Z,961.22
2019-02-26T05:12:08.131Z,961.19
2019-02-26T05:13:09.725Z,961.23
2019-02-26T05:14:09.211Z,961.22
2019-02-26T05:15:11.544Z,961.12
2019-02-26T05:16:07.731Z,961.15
2019-02-26T05:17:07.635Z,961.13
2019-02-26T05:18:07.572Z,961.07
2019-02-26T05:19:07.430Z,961.11
2019-02-26T05:20:10.472Z,961.12
2019-02-26T05:21:08.366Z,961.10
2019-02-26T05:22:07.174Z,961.05
2019-02-26T05:23:07.033Z,961.05
2019-02-26T05:24:06.935Z,961.03
2019-02-26T05:25:07.439Z,961.04
2019-02-26T05:26:08.362Z,961.01
2019-02-26T05:27:09.515Z,960.97
2019-02-26T05:28:09.330Z,960.98
2019-02-26T05:29:06.437Z,960.97
2019-02-26T05:30:07.086Z,960.96
2019-02-26T05:31:06.576Z,960.98
2019-02-26T05:32:07.229Z,960.96
2019-02-26T05:33:06.038Z,960.93
2019-02-26T05:34:05.936Z,960.89
2019-02-26T05:35:05.849Z,960.86
2019-02-26T05:36:06.990Z,960.87
2019-02-26T05:37:08.118Z,960.86
2019-02-26T05:38:06.806Z,960.86
2019-02-26T05:39:05.441Z,960.83
2019-02-26T05:40:07.070Z,960.83
2019-02-26T05:41:05.241Z,960.88
2019-02-26T05:42:06.308Z,960.84
2019-02-26T05:43:06.716Z,960.83
2019-02-26T05:44:08.473Z,960.84
2019-02-26T05:45:08.405Z,960.81
2019-02-26T05:46:04.742Z,960.82
2019-02-26T05:47:04.639Z,960.87
2019-02-26T05:48:04.537Z,960.84
2019-02-26T05:49:06.679Z,960.85
2019-02-26T05:50:06.943Z,960.88
2019-02-26T05:51:05.589Z,960.86
2019-02-26T05:52:04.852Z,960.82
2019-02-26T05:53:05.526Z,960.88
2019-02-26T05:54:07.720Z,960.89
2019-02-26T05:55:03.842Z,960.91
2019-02-26T05:56:03.761Z,960.95
2019-02-26T05:57:04.795Z,960.96
2019-02-26T05:58:03.544Z,960.95
2019-02-26T05:59:06.791Z,961.04
2019-02-26T06:00:03.344Z,961.04
2019-02-26T06:01:03.257Z,961.04
2019-02-26T06:02:03.143Z,961.07
2019-02-26T06:03:03.594Z,961.06
2019-02-26T06:04:04.773Z,961.03
2019-02-26T06:05:02.839Z,961.02
2019-02-26T06:06:02.762Z,961.04
2019-02-26T06:07:04.600Z,961.06
2019-02-26T06:08:02.541Z,961.02
2019-02-26T06:09:05.048Z,961.04
2019-02-26T06:10:02.443Z,961.01
2019-02-26T06:11:02.256Z,961.00
2019-02-26T06:12:02.141Z,961.00
2019-02-26T06:13:02.766Z,961.03
2019-02-26T06:14:06.703Z,961.01
2019-02-26T06:15:05.194Z,961.04
2019-02-26T06:16:02.836Z,961.08
2019-02-26T06:17:01.745Z,961.05
2019-02-26T06:18:01.545Z,961.04
2019-02-26T06:19:01.443Z,961.04
2019-02-26T06:20:02.727Z,961.04
2019-02-26T06:21:01.474Z,961.03
2019-02-26T06:22:01.144Z,961.00
2019-02-26T06:23:01.041Z,960.95
2019-02-26T06:24:01.048Z,960.97
2019-02-26T06:25:07.008Z,960.99
2019-02-26T06:26:02.374Z,960.98
2019-02-26T06:27:00.640Z,961.00
2019-02-26T06:28:04.450Z,961.01
2019-02-26T06:29:00.441Z,961.04
2019-02-26T06:30:03.172Z,961.02
2019-02-26T06:31:00.397Z,961.07
2019-02-26T06:32:00.893Z,961.06
2019-02-26T06:33:04.107Z,961.07
2019-02-26T06:34:03.542Z,961.05
2019-02-26T06:34:59.849Z,961.08
2019-02-26T06:36:01.545Z,961.13
2019-02-26T06:36:59.652Z,961.14
2019-02-26T06:38:01.900Z,961.15
2019-02-26T06:39:01.352Z,961.14
2019-02-26T06:40:00.611Z,961.12
2019-02-26T06:40:59.263Z,961.15
2019-02-26T06:41:59.144Z,961.21
2019-02-26T06:42:59.045Z,961.20
2019-02-26T06:43:58.949Z,961.18
2019-02-26T06:44:58.953Z,961.14
2019-02-26T06:46:00.261Z,961.18
2019-02-26T06:47:00.289Z,961.19
2019-02-26T06:47:58.652Z,961.21
2019-02-26T06:48:58.445Z,961.25
2019-02-26T06:49:58.350Z,961.28
2019-02-26T06:50:59.872Z,961.28
2019-02-26T06:51:58.254Z,961.30
2019-02-26T06:52:58.050Z,961.25
2019-02-26T06:53:58.839Z,961.25
2019-02-26T06:55:00.125Z,961.28
2019-02-26T06:55:58.608Z,961.28
2019-02-26T06:56:57.658Z,961.28
2019-02-26T06:57:57.552Z,961.29
2019-02-26T06:58:57.556Z,961.32
2019-02-26T06:59:59.066Z,961.27
2019-02-26T07:00:57.268Z,961.29
2019-02-26T07:01:57.151Z,961.33
2019-02-26T07:02:57.051Z,961.36
2019-02-26T07:03:56.953Z,961.36
2019-02-26T07:04:56.982Z,961.42
2019-02-26T07:05:56.771Z,961.42
2019-02-26T07:06:59.184Z,961.43
2019-02-26T07:07:57.012Z,961.47
2019-02-26T07:08:56.456Z,961.38
2019-02-26T07:09:58.112Z,961.38
2019-02-26T07:10:56.271Z,961.39
2019-02-26T07:11:56.156Z,961.36
2019-02-26T07:12:56.058Z,961.34
2019-02-26T07:13:55.959Z,961.33
2019-02-26T07:14:57.977Z,961.34
2019-02-26T07:15:55.774Z,961.31
2019-02-26T07:16:56.564Z,961.33
2019-02-26T07:17:55.562Z,961.32
2019-02-26T07:18:55.460Z,961.31
2019-02-26T07:19:57.312Z,961.41
2019-02-26T07:20:57.815Z,961.44
2019-02-26T07:21:55.162Z,961.45
2019-02-26T07:22:55.067Z,961.51
2019-02-26T07:23:56.453Z,961.53
2019-02-26T07:24:54.868Z,961.51
2019-02-26T07:25:54.784Z,961.53
2019-02-26T07:26:54.672Z,961.51
2019-02-26T07:27:56.316Z,961.47
2019-02-26T07:28:54.472Z,961.49
2019-02-26T07:29:54.369Z,961.44
2019-02-26T07:30:54.293Z,961.43
2019-02-26T07:31:56.567Z,961.46
2019-02-26T07:32:54.076Z,961.44
2019-02-26T07:33:55.885Z,961.44
2019-02-26T07:34:53.875Z,961.46
2019-02-26T07:35:56.420Z,961.47
2019-02-26T07:36:53.696Z,961.47
2019-02-26T07:37:54.542Z,961.44
2019-02-26T07:38:54.769Z,961.44
2019-02-26T07:39:53.385Z,961.42
2019-02-26T07:40:54.368Z,961.42
2019-02-26T07:41:54.394Z,961.44
2019-02-26T07:42:53.085Z,961.39
2019-02-26T07:43:54.735Z,961.39
2019-02-26T07:44:52.888Z,961.40
2019-02-26T07:45:52.792Z,961.41
2019-02-26T07:46:52.706Z,961.37
2019-02-26T07:47:54.064Z,961.40
2019-02-26T07:48:54.045Z,961.42
2019-02-26T07:49:56.486Z,961.38
2019-02-26T07:50:52.298Z,961.39
2019-02-26T07:51:52.213Z,961.45
2019-02-26T07:52:54.091Z,961.45
2019-02-26T07:53:54.279Z,961.47
2019-02-26T07:54:51.975Z,961.45
2019-02-26T07:55:51.811Z,961.46
2019-02-26T07:56:52.489Z,961.47
2019-02-26T07:57:53.178Z,961.48
2019-02-26T07:58:51.512Z,961.44
2019-02-26T07:59:51.410Z,961.42
2019-02-26T08:00:52.194Z,961.43
2019-02-26T08:01:51.229Z,961.46
2019-02-26T08:02:52.051Z,961.48
2019-02-26T08:03:52.761Z,961.48
2019-02-26T08:04:50.920Z,961.48
2019-02-26T08:05:50.872Z,961.49
2019-02-26T08:06:52.356Z,961.47
2019-02-26T08:07:51.965Z,961.46
2019-02-26T08:08:50.526Z,961.43
2019-02-26T08:09:50.432Z,961.40
2019-02-26T08:10:51.220Z,961.44
2019-02-26T08:11:50.255Z,961.46
2019-02-26T08:12:50.135Z,961.44
2019-02-26T08:13:51.736Z,961.41
2019-02-26T08:14:50.180Z,961.43
2019-02-26T08:15:49.842Z,961.47
2019-02-26T08:16:53.632Z,961.48
2019-02-26T08:17:51.241Z,961.46
2019-02-26T08:18:51.686Z,961.44
2019-02-26T08:19:49.515Z,961.45
2019-02-26T08:20:49.353Z,961.47
2019-02-26T08:21:50.367Z,961.49
2019-02-26T08:22:51.364Z,961.48
2019-02-26T08:23:51.073Z,961.46
2019-02-26T08:24:50.900Z,961.48
2019-02-26T08:25:49.932Z,961.45
2019-02-26T08:26:49.775Z,961.52
2019-02-26T08:27:49.928Z,961.50
2019-02-26T08:28:48.677Z,961.51
2019-02-26T08:29:49.432Z,961.53
2019-02-26T08:30:49.815Z,961.53
2019-02-26T08:31:49.480Z,961.51
2019-02-26T08:32:51.147Z,961.56
2019-02-26T08:33:50.907Z,961.55
2019-02-26T08:34:47.990Z,961.60
2019-02-26T08:35:47.989Z,961.58
2019-02-26T08:36:47.812Z,961.57
2019-02-26T08:37:47.698Z,961.61
2019-02-26T08:38:47.601Z,961.54
2019-02-26T08:39:47.500Z,961.56
2019-02-26T08:40:47.407Z,961.55
2019-02-26T08:41:47.323Z,961.57
2019-02-26T08:42:47.327Z,961.54
2019-02-26T08:43:49.610Z,961.55
2019-02-26T08:44:48.674Z,961.58
2019-02-26T08:45:46.919Z,961.59
2019-02-26T08:46:48.916Z,961.61
2019-02-26T08:47:46.725Z,961.59
2019-02-26T08:48:48.378Z,961.62
2019-02-26T08:49:47.465Z,961.62
2019-02-26T08:50:46.436Z,961.62
2019-02-26T08:51:46.353Z,961.63
2019-02-26T08:52:49.430Z,961.63
2019-02-26T08:53:47.638Z,961.64
2019-02-26T08:54:46.048Z,961.69
2019-02-26T08:55:45.955Z,961.69
2019-02-26T08:56:45.968Z,961.74
2019-02-26T08:57:45.770Z,961.74
2019-02-26T08:58:45.664Z,961.77
2019-02-26T08:59:47.279Z,961.73
2019-02-26T09:00:45.471Z,961.75
2019-02-26T09:01:45.404Z,961.77
2019-02-26T09:02:46.035Z,961.78
2019-02-26T09:03:45.185Z,961.90
2019-02-26T09:04:47.816Z,961.84
2019-02-26T09:05:44.988Z,961.81
2019-02-26T09:06:44.908Z,961.81
2019-02-26T09:07:47.034Z,961.80
2019-02-26T09:08:44.703Z,961.78
2019-02-26T09:09:45.079Z,961.75
2019-02-26T09:10:46.342Z,961.82
2019-02-26T09:11:44.457Z,961.85
2019-02-26T09:12:46.858Z,961.83
2019-02-26T09:13:44.229Z,961.87
2019-02-26T09:14:45.703Z,961.87
2019-02-26T09:15:44.036Z,961.89
2019-02-26T09:16:47.667Z,961.87
2019-02-26T09:17:43.846Z,961.86
2019-02-26T09:18:44.044Z,961.86
2019-02-26T09:19:43.659Z,961.88
2019-02-26T09:20:43.572Z,961.90
2019-02-26T09:21:45.241Z,961.86
2019-02-26T09:22:47.987Z,961.85
2019-02-26T09:23:47.471Z,961.89
2019-02-26T09:24:43.183Z,961.88
2019-02-26T09:25:43.204Z,961.94
2019-02-26T09:26:43.014Z,961.86
2019-02-26T09:27:43.212Z,961.86
2019-02-26T09:28:44.603Z,961.86
2019-02-26T09:29:48.336Z,961.85
2019-02-26T09:30:42.617Z,961.81
2019-02-26T09:31:42.540Z,961.81
2019-02-26T09:32:44.729Z,961.80
2019-02-26T09:33:43.612Z,961.76
2019-02-26T09:34:42.238Z,961.81
2019-02-26T09:35:42.146Z,961.78
2019-02-26T09:36:42.052Z,961.78
2019-02-26T09:37:42.800Z,961.80
2019-02-26T09:38:43.849Z,961.84
2019-02-26T09:39:41.875Z,961.84
2019-02-26T09:40:41.673Z,961.85
2019-02-26T09:41:43.328Z,961.86
2019-02-26T09:42:41.500Z,961.87
2019-02-26T09:43:43.182Z,961.90
2019-02-26T09:44:41.299Z,961.96
2019-02-26T09:45:43.048Z,961.95
2019-02-26T09:46:43.376Z,961.94
2019-02-26T09:47:41.032Z,961.91
2019-02-26T09:48:42.923Z,961.96
2019-02-26T09:49:40.825Z,961.96
2019-02-26T09:50:43.428Z,961.94
2019-02-26T09:51:40.645Z,962.02
2019-02-26T09:52:40.562Z,962.01
2019-02-26T09:53:40.455Z,962.06
2019-02-26T09:54:42.812Z,962.04
2019-02-26T09:55:40.257Z,962.07
2019-02-26T09:56:40.166Z,962.04
2019-02-26T09:57:40.087Z,962.02
2019-02-26T09:58:41.177Z,962.02
2019-02-26T09:59:39.880Z,961.98
2019-02-26T10:00:40.583Z,961.97
2019-02-26T10:01:40.829Z,961.98
2019-02-26T10:02:40.043Z,962.02
2019-02-26T10:03:41.327Z,962.04
2019-02-26T10:04:39.411Z,962.03
2019-02-26T10:05:39.315Z,962.05
2019-02-26T10:06:40.650Z,962.03
2019-02-26T10:07:39.141Z,962.08
2019-02-26T10:08:39.034Z,962.04
2019-02-26T10:09:40.712Z,962.01
2019-02-26T10:10:39.754Z,962.05
2019-02-26T10:11:39.390Z,961.99
2019-02-26T10:12:39.362Z,961.97
2019-02-26T10:13:39.638Z,961.96
2019-02-26T10:14:38.633Z,961.99
2019-02-26T10:15:39.859Z,962.00
2019-02-26T10:16:38.277Z,961.99
2019-02-26T10:17:40.800Z,962.04
2019-02-26T10:18:38.084Z,962.05
2019-02-26T10:19:38.841Z,962.08
2019-02-26T10:20:37.907Z,962.06
2019-02-26T10:21:39.864Z,962.09
2019-02-26T10:22:38.665Z,962.12
2019-02-26T10:23:37.613Z,962.10
2019-02-26T10:24:40.398Z,962.12
2019-02-26T10:25:38.808Z,962.16
2019-02-26T10:26:39.293Z,962.12
2019-02-26T10:27:38.791Z,962.14
2019-02-26T10:28:39.467Z,962.13
2019-02-26T10:29:39.344Z,962.16
2019-02-26T10:30:40.967Z,962.13
2019-02-26T10:31:40.183Z,962.13
2019-02-26T10:32:36.780Z,962.16
2019-02-26T10:33:40.130Z,962.13
2019-02-26T10:34:36.574Z,962.13
2019-02-26T10:35:38.723Z,962.13
2019-02-26T10:36:40.641Z,962.14
2019-02-26T10:37:38.622Z,962.16
2019-02-26T10:38:38.327Z,962.16
2019-02-26T10:39:36.102Z,962.18
2019-02-26T10:40:50.118Z,962.18
2019-02-26T10:41:36.954Z,962.16
2019-02-26T10:42:39.772Z,962.20
2019-02-26T10:43:35.733Z,962.18
2019-02-26T10:44:35.639Z,962.19
2019-02-26T10:45:38.682Z,962.22
2019-02-26T10:46:37.081Z,962.22
2019-02-26T10:47:35.372Z,962.27
2019-02-26T10:48:35.262Z,962.28
2019-02-26T10:49:35.168Z,962.25
2019-02-26T10:50:37.272Z,962.21
2019-02-26T10:51:34.984Z,962.21
2019-02-26T10:52:34.909Z,962.20
2019-02-26T10:53:34.797Z,962.19
2019-02-26T10:54:37.475Z,962.19
2019-02-26T10:55:38.668Z,962.14
2019-02-26T10:56:39.104Z,962.13
2019-02-26T10:57:36.222Z,962.12
2019-02-26T10:58:34.336Z,962.09
2019-02-26T10:59:34.247Z,962.07
2019-02-26T11:00:37.190Z,962.12
2019-02-26T11:01:34.098Z,962.12
2019-02-26T11:02:33.989Z,962.14
2019-02-26T11:03:37.961Z,962.28
2019-02-26T11:04:35.532Z,962.23
2019-02-26T11:05:33.694Z,962.27
2019-02-26T11:06:36.051Z,962.27
2019-02-26T11:07:34.519Z,962.21
2019-02-26T11:08:35.069Z,962.26
2019-02-26T11:09:33.429Z,962.30
2019-02-26T11:10:33.234Z,962.38
2019-02-26T11:11:35.103Z,962.32
2019-02-26T11:12:34.045Z,962.28
2019-02-26T11:13:32.962Z,962.21
2019-02-26T11:14:35.647Z,962.23
2019-02-26T11:15:33.941Z,962.24
2019-02-26T11:16:35.269Z,962.25
2019-02-26T11:17:32.595Z,962.25
2019-02-26T11:18:34.611Z,962.37
2019-02-26T11:19:35.663Z,962.29
2019-02-26T11:20:34.268Z,962.36
2019-02-26T11:21:32.234Z,962.28
2019-02-26T11:22:32.145Z,962.20
2019-02-26T11:23:34.554Z,962.11
2019-02-26T11:24:33.684Z,962.14
2019-02-26T11:25:31.872Z,962.22
2019-02-26T11:26:32.445Z,962.17
2019-02-26T11:27:31.694Z,962.14
2019-02-26T11:28:32.943Z,962.11
2019-02-26T11:29:33.812Z,962.13
2019-02-26T11:30:32.231Z,962.17
2019-02-26T11:31:31.337Z,962.11
2019-02-26T11:32:32.623Z,962.15
2019-02-26T11:33:31.170Z,962.07
2019-02-26T11:34:33.346Z,962.03
2019-02-26T11:35:30.973Z,962.04
2019-02-26T11:36:32.951Z,962.08
2019-02-26T11:37:32.065Z,962.05
2019-02-26T11:38:30.715Z,961.98
2019-02-26T11:39:30.608Z,962.01
2019-02-26T11:40:30.821Z,962.02
2019-02-26T11:41:31.205Z,962.07
2019-02-26T11:42:30.341Z,962.09
2019-02-26T11:43:30.262Z,962.12
2019-02-26T11:44:30.257Z,962.04
2019-02-26T11:45:32.208Z,961.95
2019-02-26T11:46:34.093Z,961.96
2019-02-26T11:47:32.229Z,961.93
2019-02-26T11:48:31.278Z,961.97
2019-02-26T11:49:31.155Z,961.95
2019-02-26T11:50:29.737Z,961.96
2019-02-26T11:51:36.899Z,961.87
2019-02-26T11:52:29.437Z,961.80
2019-02-26T11:53:29.876Z,961.77
2019-02-26T11:54:34.069Z,961.71
2019-02-26T11:55:31.840Z,961.73
2019-02-26T11:56:29.068Z,961.80
2019-02-26T11:57:32.573Z,961.84
2019-02-26T11:58:29.006Z,961.78
2019-02-26T11:59:28.801Z,961.74
2019-02-26T12:00:33.853Z,961.77
2019-02-26T12:01:29.365Z,961.77
2019-02-26T12:02:33.417Z,961.77
2019-02-26T12:03:31.061Z,961.78
2019-02-26T12:04:28.463Z,961.75
2019-02-26T12:05:33.092Z,961.71
2019-02-26T12:06:28.165Z,961.73
2019-02-26T12:07:29.764Z,961.73
2019-02-26T12:08:28.001Z,961.75
2019-02-26T12:09:30.003Z,961.73
2019-02-26T12:10:30.509Z,961.65
2019-02-26T12:11:27.722Z,961.64
2019-02-26T12:12:28.397Z,961.69
2019-02-26T12:13:27.828Z,961.71
2019-02-26T12:14:27.444Z,961.75
2019-02-26T12:15:30.115Z,961.68
2019-02-26T12:16:28.499Z,961.65
2019-02-26T12:17:27.177Z,961.64
2019-02-26T12:18:27.102Z,961.59
2019-02-26T12:19:28.322Z,961.60
2019-02-26T12:20:26.906Z,961.65
2019-02-26T12:21:28.067Z,961.62
2019-02-26T12:22:27.845Z,961.54
2019-02-26T12:23:26.655Z,961.50
2019-02-26T12:24:27.146Z,961.50
2019-02-26T12:25:26.459Z,961.53
2019-02-26T12:26:27.990Z,961.50
2019-02-26T12:27:26.282Z,961.45